Time;durP1;ratioP1;P1;durP2;ratioP2;P2;SDS_P1;SDS_P2;PMS_P1;PMS_P2;Temp;Humidity;BMP_temperature;BMP_pressure;BME280_temperature;BME280_humidity;BME280_pressure;Samples;Min_cycle;Max_cycle;Signal;HPM_P1;HPM_P2
2024/01/15 00:00:43;;;;;;;10.98;5.15;;;;;;;-6.32;77.14;97410.00;5065492;28;20472;-68
2024/01/15 00:03:09;;;;;;;9.07;3.80;;;;;;;-6.30;77.00;97399.88;5062029;28;20078;-68
2024/01/15 00:05:36;;;;;;;7.90;4.18;;;;;;;-6.51;77.65;97378.06;5063917;28;20060;-67
2024/01/15 00:08:21;;;;;;;9.63;4.30;;;;;;;-6.31;77.38;97414.19;5061142;28;20531;-67
2024/01/15 00:10:46;;;;;;;8.48;3.33;;;;;;;-6.31;77.52;97396.50;5045576;28;20047;-67
2024/01/15 00:13:12;;;;;;;7.45;3.20;;;;;;;-6.33;77.63;97394.84;5063962;28;20040;-67
2024/01/15 00:15:57;;;;;;;6.78;3.30;;;;;;;-6.35;77.98;97397.38;5047083;28;20050;-66
2024/01/15 00:18:23;;;;;;;9.75;4.35;;;;;;;-6.31;78.64;97391.47;5061882;28;20044;-67
2024/01/15 00:21:07;;;;;;;8.55;4.13;;;;;;;-6.29;79.50;97378.81;5060245;28;20508;-68
2024/01/15 00:23:33;;;;;;;6.45;3.30;;;;;;;-6.29;78.92;97383.88;5061653;28;20090;-68
2024/01/15 00:25:59;;;;;;;13.85;4.72;;;;;;;-6.23;79.13;97393.97;5063747;28;20032;-68
2024/01/15 00:28:25;;;;;;;8.63;3.72;;;;;;;-6.23;78.60;97382.16;5062236;28;20110;-67
2024/01/15 00:30:50;;;;;;;11.45;4.75;;;;;;;-6.15;78.67;97379.56;5059555;28;20044;-67
2024/01/15 00:33:35;;;;;;;9.48;3.35;;;;;;;-6.23;78.18;97346.78;5063836;28;20044;-68
2024/01/15 00:36:19;;;;;;;8.40;3.83;;;;;;;-6.08;78.57;97371.13;5061963;28;20039;-66
2024/01/15 00:38:47;;;;;;;4.90;2.35;;;;;;;-6.06;77.92;97371.94;5089029;28;20036;-66
2024/01/15 00:41:14;;;;;;;9.30;4.45;;;;;;;-6.05;77.92;97371.94;5062063;28;20534;-67
2024/01/15 00:43:58;;;;;;;10.70;4.65;;;;;;;-6.04;77.18;97371.09;5062328;28;20146;-67
2024/01/15 00:46:24;;;;;;;11.90;4.43;;;;;;;-6.08;77.42;97361.00;5078390;28;20814;-68
2024/01/15 00:48:50;;;;;;;6.57;4.22;;;;;;;-6.25;77.94;97334.97;5062023;28;20492;-69
2024/01/15 00:51:16;;;;;;;7.57;3.92;;;;;;;-6.11;77.59;97361.84;5062136;28;20044;-68
2024/01/15 00:53:42;;;;;;;8.85;3.53;;;;;;;-6.10;77.90;97360.16;5063087;28;20094;-67
2024/01/15 00:56:26;;;;;;;7.88;4.28;;;;;;;-6.04;78.36;97362.66;5060390;28;20040;-69
2024/01/15 01:01:37;;;;;;;9.35;4.20;;;;;;;-6.10;78.28;97335.72;5062094;28;20075;-68
2024/01/15 01:04:03;;;;;;;11.00;4.93;;;;;;;-6.03;78.47;97357.59;5061072;28;20032;-68
2024/01/15 01:06:29;;;;;;;9.00;3.72;;;;;;;-5.99;78.63;97353.34;5063611;28;20036;-67
2024/01/15 01:08:55;;;;;;;11.88;4.70;;;;;;;-5.99;78.20;97343.22;5057744;28;20045;-68
2024/01/15 01:11:21;;;;;;;6.75;2.85;;;;;;;-6.38;78.17;97296.28;5048985;28;20578;-67
2024/01/15 01:16:50;;;;;;;10.55;4.85;;;;;;;-6.10;78.57;97340.78;5061283;28;20319;-66
2024/01/15 01:19:16;;;;;;;7.38;4.07;;;;;;;-6.13;78.69;97322.25;5060515;28;20040;-68
2024/01/15 01:21:42;;;;;;;11.43;4.78;;;;;;;-6.07;79.18;97329.81;5060866;28;20048;-68
2024/01/15 01:24:08;;;;;;;13.95;4.60;;;;;;;-6.11;78.82;97341.63;5088825;28;20043;-68
2024/01/15 01:26:34;;;;;;;8.45;3.42;;;;;;;-6.08;78.54;97330.66;5062148;28;20036;-66
2024/01/15 01:29:00;;;;;;;13.18;3.97;;;;;;;-6.07;78.61;97327.28;5061453;28;20470;-66
2024/01/15 01:31:25;;;;;;;8.60;3.78;;;;;;;-6.17;78.69;97308.78;5055644;28;20625;-68
2024/01/15 01:33:52;;;;;;;7.75;2.70;;;;;;;-6.09;79.26;97319.69;5063057;28;20081;-68
2024/01/15 01:36:18;;;;;;;9.25;3.60;;;;;;;-6.09;78.98;97317.19;5062138;28;20482;-68
2024/01/15 01:39:02;;;;;;;9.02;4.40;;;;;;;-6.07;79.24;97317.19;5059209;28;20044;-67
2024/01/15 01:41:28;;;;;;;7.95;4.10;;;;;;;-6.05;79.06;97307.88;5062146;28;20040;-68
2024/01/15 01:43:54;;;;;;;11.55;4.22;;;;;;;-6.07;79.39;97315.47;5060437;28;20091;-67
2024/01/15 01:46:20;;;;;;;7.30;3.53;;;;;;;-6.01;79.14;97307.81;5055821;28;20496;-66
2024/01/15 01:49:23;;;;;;;10.25;3.78;;;;;;;-6.03;79.46;97291.84;5058604;28;20615;-66
2024/01/15 01:52:08;;;;;;;8.95;4.95;;;;;;;-5.94;79.56;97305.25;5059055;28;20072;-67
2024/01/15 01:54:35;;;;;;;9.45;3.60;;;;;;;-5.92;79.23;97313.69;5057775;28;20124;-65
2024/01/15 01:57:21;;;;;;;10.68;3.47;;;;;;;-5.91;79.44;97308.59;5059603;28;20047;-68
2024/01/15 01:59:47;;;;;;;8.23;3.65;;;;;;;-5.93;80.55;97305.25;5062061;28;20044;-67
2024/01/15 02:02:13;;;;;;;11.07;4.68;;;;;;;-5.89;80.75;97306.91;5060336;28;20052;-67
2024/01/15 02:04:39;;;;;;;9.43;3.42;;;;;;;-5.86;80.76;97291.66;5061854;28;20098;-68
2024/01/15 02:07:05;;;;;;;13.23;5.10;;;;;;;-5.82;80.32;97300.91;5062969;28;20049;-67
2024/01/15 02:09:32;;;;;;;10.82;4.43;;;;;;;-5.78;80.41;97304.25;5060139;28;20569;-68
2024/01/15 02:11:58;;;;;;;9.60;4.40;;;;;;;-5.76;80.82;97290.75;5063023;28;20040;-67
2024/01/15 02:14:23;;;;;;;10.88;4.40;;;;;;;-5.73;80.64;97290.72;5053064;28;20044;-67
2024/01/15 02:17:09;;;;;;;14.10;5.35;;;;;;;-5.66;80.21;97291.50;5062024;28;20032;-66
2024/01/15 02:19:35;;;;;;;12.77;5.18;;;;;;;-5.59;80.51;97293.13;5058226;28;20040;-67
2024/01/15 02:22:19;;;;;;;8.73;4.78;;;;;;;-5.53;80.74;97289.69;5061750;28;20049;-68
2024/01/15 02:25:03;;;;;;;10.63;4.07;;;;;;;-5.63;80.42;97276.28;5060454;28;20067;-67
2024/01/15 02:27:29;;;;;;;14.45;5.65;;;;;;;-5.56;80.44;97299.00;5088714;28;20432;-68
2024/01/15 02:30:13;;;;;;;10.40;5.18;;;;;;;-5.55;80.54;97290.53;5055688;28;20514;-68
2024/01/15 02:32:39;;;;;;;12.18;5.05;;;;;;;-5.53;80.18;97288.00;5063565;28;20219;-67
2024/01/15 02:35:05;;;;;;;12.95;5.82;;;;;;;-5.52;80.38;97279.56;5065266;28;20610;-67
2024/01/15 02:37:31;;;;;;;6.30;3.45;;;;;;;-5.46;80.43;97287.09;5093190;28;20056;-67
2024/01/15 02:39:57;;;;;;;8.05;3.72;;;;;;;-5.44;79.79;97287.09;5048862;28;20385;-66
2024/01/15 02:42:23;;;;;;;8.88;4.07;;;;;;;-5.56;79.80;97278.75;5093163;28;20505;-68
2024/01/15 02:44:49;;;;;;;11.88;5.20;;;;;;;-5.61;80.19;97257.72;5067732;28;20093;-68
2024/01/15 02:47:16;;;;;;;8.02;4.20;;;;;;;-5.41;80.35;97287.03;5067413;28;20048;-68
2024/01/15 02:50:00;;;;;;;10.68;5.13;;;;;;;-5.36;79.88;97283.63;5065999;28;20066;-68
2024/01/15 02:53:04;;;;;;;11.80;4.75;;;;;;;-5.29;79.99;97279.34;5063795;28;20485;-67
2024/01/15 02:58:14;;;;;;;19.05;7.07;;;;;;;-5.26;80.43;97276.75;5062895;28;20515;-68
2024/01/15 03:00:41;;;;;;;13.40;5.90;;;;;;;-5.18;80.60;97285.13;5092013;28;20033;-67
2024/01/15 03:03:06;;;;;;;13.60;5.80;;;;;;;-5.05;80.53;97283.28;5064216;28;20493;-67
2024/01/15 03:05:32;;;;;;;11.75;5.47;;;;;;;-4.98;80.25;97279.81;5064675;28;20040;-68
2024/01/15 03:07:58;;;;;;;10.93;4.72;;;;;;;-4.94;79.98;97264.56;5064775;28;20049;-68
2024/01/15 03:10:24;;;;;;;11.43;5.68;;;;;;;-4.92;80.02;97256.97;5063383;28;20063;-67
2024/01/15 03:12:50;;;;;;;15.75;5.65;;;;;;;-4.81;79.95;97263.53;5064670;28;20064;-66
2024/01/15 03:15:16;;;;;;;9.73;4.97;;;;;;;-4.73;79.60;97260.94;5064364;28;20508;-66
2024/01/15 03:17:45;;;;;;;15.45;6.95;;;;;;;-4.89;79.16;97229.88;5091854;28;20041;-67
2024/01/15 03:20:29;;;;;;;14.00;5.90;;;;;;;-4.64;79.72;97262.50;5061413;28;20040;-67
2024/01/15 03:22:55;;;;;;;14.98;6.07;;;;;;;-4.96;79.01;97195.34;5061462;28;20770;-69
2024/01/15 03:25:21;;;;;;;12.80;5.85;;;;;;;-4.45;79.53;97266.47;5094587;28;20043;-67
2024/01/15 03:27:47;;;;;;;17.80;5.55;;;;;;;-4.41;78.71;97258.78;5063828;28;20585;-66
2024/01/15 03:30:13;;;;;;;13.93;5.32;;;;;;;-4.53;78.76;97220.09;5061657;28;20043;-66
2024/01/15 03:32:39;;;;;;;15.93;6.20;;;;;;;-4.31;78.30;97244.28;5064440;28;20094;-67
2024/01/15 03:35:05;;;;;;;13.85;5.75;;;;;;;-4.23;78.39;97251.75;5090503;28;20044;-69
2024/01/15 03:37:31;;;;;;;12.60;5.30;;;;;;;-4.21;77.82;97258.50;5063792;28;20539;-67
2024/01/15 03:39:57;;;;;;;12.63;5.57;;;;;;;-4.25;78.17;97251.81;5063904;28;20041;-66
2024/01/15 03:42:41;;;;;;;13.88;5.03;;;;;;;-4.20;78.16;97244.13;5064207;28;20041;-67
2024/01/15 03:45:26;;;;;;;13.68;5.78;;;;;;;-4.08;78.03;97241.41;5063580;28;20552;-68
2024/01/15 03:47:52;;;;;;;14.75;6.63;;;;;;;-4.02;77.75;97237.03;5074565;28;20048;-67
2024/01/15 03:50:17;;;;;;;11.85;5.97;;;;;;;-4.15;77.56;97204.31;5061175;28;20047;-67
2024/01/15 03:52:43;;;;;;;15.40;5.78;;;;;;;-3.85;77.41;97239.31;5065126;28;20044;-68
2024/01/15 03:55:28;;;;;;;15.55;5.72;;;;;;;-3.89;77.28;97232.63;5077054;28;20041;-69
2024/01/15 03:57:54;;;;;;;15.02;5.68;;;;;;;-3.88;77.09;97235.16;5066722;28;20037;-68
2024/01/15 04:00:19;;;;;;;15.07;6.18;;;;;;;-3.76;77.40;97240.84;5062143;28;20048;-67
2024/01/15 04:02:45;;;;;;;18.23;6.22;;;;;;;-3.72;77.11;97227.25;5061789;28;20415;-69
2024/01/15 04:05:30;;;;;;;13.23;5.72;;;;;;;-3.64;76.88;97241.47;5066164;28;20036;-69
2024/01/15 04:07:55;;;;;;;12.13;5.28;;;;;;;-3.75;76.59;97222.22;5063910;28;20045;-68
2024/01/15 04:10:21;;;;;;;14.45;6.03;;;;;;;-3.72;76.90;97239.97;5066391;28;20463;-69
2024/01/15 04:12:47;;;;;;;12.13;6.25;;;;;;;-3.90;76.59;97203.88;5064831;28;20704;-68
2024/01/15 04:15:13;;;;;;;16.85;6.63;;;;;;;-3.66;76.79;97239.81;5064599;28;20037;-68
2024/01/15 04:17:39;;;;;;;16.05;6.95;;;;;;;-3.62;76.88;97233.84;5063528;28;20428;-69
2024/01/15 04:20:06;;;;;;;15.35;6.50;;;;;;;-3.83;76.45;97197.00;5053867;28;20047;-68
2024/01/15 04:22:34;;;;;;;14.90;6.65;;;;;;;-3.56;76.18;97231.22;5064196;28;20511;-69
2024/01/15 04:25:18;;;;;;;13.75;5.78;;;;;;;-3.62;76.69;97231.31;5065127;28;20040;-67
2024/01/15 04:27:44;;;;;;;16.40;6.15;;;;;;;-3.88;76.70;97194.53;5065835;28;20135;-68
2024/01/15 04:30:11;;;;;;;15.60;6.75;;;;;;;-3.70;76.71;97233.13;5046903;28;20048;-68
2024/01/15 04:32:36;;;;;;;19.05;6.95;;;;;;;-3.88;77.20;97206.38;5065758;28;20040;-68
2024/01/15 04:35:21;;;;;;;15.90;6.70;;;;;;;-3.78;77.22;97217.22;5063129;28;20033;-67
2024/01/15 04:38:05;;;;;;;17.13;6.22;;;;;;;-3.80;77.91;97224.00;5058570;28;20036;-67
2024/01/15 04:40:50;;;;;;;12.73;5.07;;;;;;;-3.85;79.00;97226.63;5056803;28;20113;-68
2024/01/15 04:43:16;;;;;;;16.88;6.13;;;;;;;-3.92;78.64;97222.50;5065648;28;20131;-67
2024/01/15 04:45:41;;;;;;;14.25;6.38;;;;;;;-4.16;78.87;97187.41;5064009;28;20863;-67
2024/01/15 04:48:07;;;;;;;13.20;5.63;;;;;;;-3.89;79.20;97219.94;5038297;28;20053;-67
2024/01/15 04:50:52;;;;;;;13.77;6.40;;;;;;;-4.11;79.64;97176.31;5062978;28;20694;-68
2024/01/15 04:53:18;;;;;;;14.35;5.82;;;;;;;-3.91;79.43;97226.72;5056211;28;20044;-69
2024/01/15 04:55:44;;;;;;;12.88;5.63;;;;;;;-4.12;79.78;97183.94;5077185;28;20063;-67
2024/01/15 05:00:54;;;;;;;13.02;4.53;;;;;;;-3.89;80.18;97222.47;5056896;28;20460;-66
2024/01/15 05:03:20;;;;;;;12.63;6.03;;;;;;;-4.02;80.07;97203.22;5064006;28;20610;-67
2024/01/15 05:05:46;;;;;;;14.25;6.97;;;;;;;-3.92;80.65;97219.97;5063329;28;20066;-67
2024/01/15 05:08:12;;;;;;;10.95;5.13;;;;;;;-4.10;80.56;97182.25;5062342;28;20048;-68
2024/01/15 05:10:38;;;;;;;13.40;5.75;;;;;;;-4.17;80.52;97181.50;5065136;28;20036;-67
2024/01/15 05:13:04;;;;;;;13.50;6.10;;;;;;;-4.15;80.98;97173.88;5061457;28;20067;-68
2024/01/15 05:15:30;;;;;;;12.60;6.00;;;;;;;-3.94;81.01;97216.63;5065331;28;20461;-69
2024/01/15 05:17:56;;;;;;;15.20;6.03;;;;;;;-3.94;81.57;97217.47;5062813;28;20777;-69
2024/01/15 05:20:21;;;;;;;13.52;5.40;;;;;;;-3.95;81.83;97217.50;5096317;28;20040;-69
2024/01/15 05:22:47;;;;;;;15.18;6.57;;;;;;;-3.90;82.17;97218.25;5062743;28;20037;-70
2024/01/15 05:25:13;;;;;;;10.90;5.80;;;;;;;-3.81;81.71;97220.63;5063001;28;20055;-67
2024/01/15 05:27:39;;;;;;;18.58;6.63;;;;;;;-3.83;81.85;97217.28;5059204;28;20642;-68
2024/01/15 05:30:24;;;;;;;15.68;6.75;;;;;;;-3.83;81.52;97219.00;5053158;28;20055;-69
2024/01/15 05:35:53;;;;;;;15.98;6.25;;;;;;;-3.79;82.19;97207.91;5058916;28;20074;-67
2024/01/15 05:38:19;;;;;;;14.52;6.97;;;;;;;-3.92;82.11;97171.75;5064201;28;20064;-69
2024/01/15 05:41:04;;;;;;;15.77;6.10;;;;;;;-3.88;81.82;97186.94;5065788;28;20036;-69
2024/01/15 05:43:30;;;;;;;13.02;5.40;;;;;;;-3.71;82.23;97206.06;5056677;28;20047;-68
2024/01/15 05:45:56;;;;;;;16.48;6.20;;;;;;;-3.73;81.96;97208.66;5070492;28;20036;-69
2024/01/15 05:48:22;;;;;;;14.63;6.47;;;;;;;-3.70;82.15;97210.28;5047493;28;20056;-70
2024/01/15 05:53:32;;;;;;;12.18;5.95;;;;;;;-3.56;82.29;97209.16;5069472;28;20046;-70
2024/01/15 05:55:57;;;;;;;12.90;6.28;;;;;;;-3.88;81.88;97148.88;5064444;28;20033;-69
2024/01/15 05:58:23;;;;;;;17.40;6.85;;;;;;;-3.47;82.42;97216.63;5064904;28;20059;-64
2024/01/15 06:00:50;;;;;;;12.98;5.97;;;;;;;-3.64;82.20;97177.19;5062434;28;20585;-70
2024/01/15 06:03:15;;;;;;;13.77;6.13;;;;;;;-3.44;82.22;97216.56;5072791;28;20040;-69
2024/01/15 06:05:41;;;;;;;23.55;8.73;;;;;;;-3.37;81.62;97212.22;5063860;28;20049;-67
2024/01/15 06:08:27;;;;;;;13.77;6.15;;;;;;;-3.37;81.99;97212.22;5065251;28;20044;-70
2024/01/15 06:10:54;;;;;;;18.33;7.82;;;;;;;-3.34;81.33;97219.78;5067072;28;20143;-68
2024/01/15 06:13:20;;;;;;;14.55;7.15;;;;;;;-3.31;81.88;97219.72;5067453;28;20512;-68
2024/01/15 06:15:45;;;;;;;11.43;5.55;;;;;;;-3.32;81.64;97212.13;5065623;28;20047;-70
2024/01/15 06:21:16;;;;;;;14.82;5.88;;;;;;;-3.24;81.36;97211.09;5067504;28;20047;-70
2024/01/15 06:23:42;;;;;;;14.95;6.38;;;;;;;-3.22;81.63;97218.69;5066453;28;20073;-69
2024/01/15 06:26:25;;;;;;;15.70;6.72;;;;;;;-3.19;81.57;97208.50;5067747;28;20040;-68
2024/01/15 06:29:12;;;;;;;16.65;7.15;;;;;;;-3.34;81.77;97176.59;5078978;28;20048;-65
2024/01/15 06:31:38;;;;;;;19.83;7.28;;;;;;;-3.16;81.62;97193.19;5078172;28;20033;-70
2024/01/15 06:34:07;;;;;;;16.77;6.78;;;;;;;-3.22;81.78;97186.50;5070190;28;20044;-69
2024/01/15 06:39:17;;;;;;;15.18;6.78;;;;;;;-2.92;81.13;97212.16;5077793;28;20046;-66
2024/01/15 06:41:43;;;;;;;15.50;6.32;;;;;;;-3.00;81.07;97194.53;5091713;28;20048;-67
2024/01/15 06:44:28;;;;;;;16.33;6.80;;;;;;;-2.83;80.88;97220.44;5066034;28;20051;-67
2024/01/15 06:46:57;;;;;;;13.55;6.65;;;;;;;-2.78;81.03;97211.03;5066885;28;20040;-66
2024/01/15 06:49:23;;;;;;;16.67;7.10;;;;;;;-2.59;80.83;97209.75;5066689;28;20063;-67
2024/01/15 06:51:49;;;;;;;12.50;6.35;;;;;;;-2.53;80.35;97218.09;5061098;28;20043;-61
2024/01/15 06:57:19;;;;;;;16.33;7.18;;;;;;;-2.52;80.48;97215.53;5066921;28;20138;-67
2024/01/15 06:59:45;;;;;;;15.77;5.93;;;;;;;-2.47;80.75;97215.44;5064546;28;20046;-65
2024/01/15 07:02:30;;;;;;;12.40;6.25;;;;;;;-2.47;80.61;97210.34;5064211;28;20539;-68
2024/01/15 07:05:15;;;;;;;16.20;5.95;;;;;;;-2.53;80.54;97211.31;5065278;28;20089;-63
2024/01/15 07:07:41;;;;;;;15.38;6.45;;;;;;;-2.51;80.75;97214.66;5059308;28;20048;-64
2024/01/15 07:10:07;;;;;;;10.88;5.28;;;;;;;-2.46;80.75;97220.47;5062887;28;20780;-65
2024/01/15 07:12:33;;;;;;;18.40;6.75;;;;;;;-2.33;80.81;97211.69;5065595;28;20044;-63
2024/01/15 07:18:02;;;;;;;17.52;6.68;;;;;;;-2.20;80.62;97218.16;5054130;28;20147;-64
2024/01/15 07:20:28;;;;;;;15.40;6.68;;;;;;;-2.38;80.34;97179.59;5061441;28;20054;-64
2024/01/15 07:22:54;;;;;;;17.27;7.05;;;;;;;-2.32;80.35;97179.47;5080576;28;20044;-64
2024/01/15 07:25:20;;;;;;;17.23;7.20;;;;;;;-1.96;80.20;97219.31;5094499;28;20048;-63
2024/01/15 07:30:31;;;;;;;17.27;7.55;;;;;;;-2.20;80.46;97182.53;5065001;28;20040;-63
2024/01/15 07:33:16;;;;;;;18.48;7.72;;;;;;;-1.88;80.66;97217.38;5067225;28;20610;-64
2024/01/15 07:35:41;;;;;;;17.95;7.15;;;;;;;-1.82;81.51;97218.94;5066919;28;20060;-64
2024/01/15 07:38:08;;;;;;;18.92;6.75;;;;;;;-1.90;81.38;97213.22;5065670;28;20079;-64
2024/01/15 07:40:34;;;;;;;18.25;6.97;;;;;;;-1.93;82.57;97208.19;5058738;28;20055;-64
2024/01/15 07:43:00;;;;;;;20.27;7.47;;;;;;;-1.84;83.13;97216.47;5058643;28;20040;-64
2024/01/15 07:48:10;;;;;;;17.98;8.07;;;;;;;-1.82;85.13;97213.84;5063367;28;20052;-63
2024/01/15 07:50:36;;;;;;;16.00;6.72;;;;;;;-1.93;85.26;97190.38;5064895;28;20040;-63
2024/01/15 07:53:02;;;;;;;20.67;6.70;;;;;;;-1.80;85.20;97210.41;5062946;28;20040;-63
2024/01/15 07:55:28;;;;;;;14.95;6.82;;;;;;;-1.78;85.36;97220.56;5062063;28;20097;-63
2024/01/15 07:57:58;;;;;;;11.27;5.70;;;;;;;-1.78;85.30;97211.19;5067278;28;20040;-63
2024/01/15 08:00:44;;;;;;;17.85;8.20;;;;;;;-1.80;87.08;97202.78;5061536;28;20055;-64
2024/01/15 08:03:11;;;;;;;13.10;6.28;;;;;;;-1.74;88.19;97202.63;5065690;28;20646;-63
2024/01/15 08:05:57;;;;;;;14.75;6.32;;;;;;;-1.68;88.76;97211.81;5060821;28;20041;-63
2024/01/15 08:08:23;;;;;;;11.95;5.45;;;;;;;-1.83;88.79;97184.16;5063745;28;20045;-62
2024/01/15 08:10:49;;;;;;;18.10;8.50;;;;;;;-1.61;88.64;97205.66;5064511;28;20083;-62
2024/01/15 08:13:15;;;;;;;19.85;6.95;;;;;;;-1.90;87.95;97163.16;5044748;28;20085;-64
2024/01/15 08:15:59;;;;;;;16.90;6.32;;;;;;;-1.39;88.56;97211.03;5064048;28;20040;-62
2024/01/15 08:18:25;;;;;;;15.75;6.50;;;;;;;-1.23;88.87;97207.22;5075172;28;20040;-62
2024/01/15 08:20:52;;;;;;;16.85;7.25;;;;;;;-1.08;88.44;97216.13;5063821;28;20046;-63
2024/01/15 08:23:17;;;;;;;15.73;7.47;;;;;;;-0.96;88.08;97210.69;5065941;28;20653;-63
2024/01/15 08:25:43;;;;;;;15.40;6.85;;;;;;;-0.76;88.14;97210.97;5065309;28;20033;-63
2024/01/15 08:28:09;;;;;;;13.93;6.47;;;;;;;-0.74;86.93;97210.94;5065615;28;20040;-63
2024/01/15 08:30:36;;;;;;;15.05;6.10;;;;;;;-0.70;87.48;97210.78;5065361;28;20097;-62
2024/01/15 08:33:01;;;;;;;18.95;7.95;;;;;;;-0.70;87.44;97208.25;5044073;28;20048;-63
2024/01/15 08:35:27;;;;;;;14.82;6.65;;;;;;;-0.60;88.41;97209.63;5060623;28;22262;-63
2024/01/15 08:37:53;;;;;;;15.32;5.80;;;;;;;-0.56;88.95;97207.81;5060792;28;20040;-63
2024/01/15 08:40:19;;;;;;;12.90;5.93;;;;;;;-0.65;88.05;97219.16;5064384;28;20305;-63
2024/01/15 08:42:45;;;;;;;14.93;6.32;;;;;;;-0.93;86.77;97185.09;5063285;28;20032;-63
2024/01/15 08:45:12;;;;;;;14.23;6.85;;;;;;;-0.97;88.22;97178.44;5097736;28;20032;-62
2024/01/15 08:50:23;;;;;;;19.05;8.02;;;;;;;-0.60;90.42;97213.91;5059709;28;20114;-63
2024/01/15 08:53:07;;;;;;;12.65;5.85;;;;;;;-0.70;90.21;97215.91;5058990;28;20074;-64
2024/01/15 08:55:33;;;;;;;10.38;4.93;;;;;;;-0.66;90.73;97214.91;5062921;28;20048;-63
2024/01/15 08:57:59;;;;;;;16.30;6.65;;;;;;;-0.63;91.29;97214.81;5061284;28;20048;-64
2024/01/15 09:00:25;;;;;;;15.80;6.95;;;;;;;-0.65;92.20;97214.03;5061383;28;20037;-65
2024/01/15 09:02:51;;;;;;;13.45;5.93;;;;;;;-0.64;93.28;97197.84;5062002;28;20047;-63
2024/01/15 09:05:17;;;;;;;15.32;7.30;;;;;;;-0.54;93.69;97212.00;5059831;28;20033;-65
2024/01/15 09:07:43;;;;;;;16.15;6.60;;;;;;;-0.58;94.33;97213.00;5060424;28;20656;-63
2024/01/15 09:10:09;;;;;;;14.48;6.57;;;;;;;-0.72;94.17;97198.94;5065243;28;20580;-63
2024/01/15 09:12:34;;;;;;;15.23;6.47;;;;;;;-0.80;92.61;97183.88;5063949;28;20047;-64
2024/01/15 09:15:04;;;;;;;16.17;6.13;;;;;;;-0.53;93.03;97207.75;5064357;28;20067;-64
2024/01/15 09:17:48;;;;;;;15.20;6.90;;;;;;;-0.63;94.28;97174.00;5062391;28;20043;-65
2024/01/15 09:20:15;;;;;;;15.32;6.70;;;;;;;-0.63;94.54;97166.34;5077134;28;20471;-63
2024/01/15 09:22:42;;;;;;;16.38;6.93;;;;;;;-0.44;94.56;97202.34;5065573;28;20051;-64
2024/01/15 09:25:11;;;;;;;9.85;5.35;;;;;;;-0.53;93.29;97208.59;5062883;28;20068;-63
2024/01/15 09:27:37;;;;;;;14.27;5.65;;;;;;;-0.66;90.40;97202.16;5054462;28;20044;-63
2024/01/15 09:30:04;;;;;;;15.55;6.15;;;;;;;-0.68;90.50;97203.91;5063157;28;20052;-63
2024/01/15 09:32:33;;;;;;;16.60;7.05;;;;;;;-0.60;92.03;97206.25;5043419;28;20036;-64
2024/01/15 09:35:18;;;;;;;14.52;6.70;;;;;;;-0.59;91.96;97200.28;5062456;28;20040;-64
2024/01/15 09:37:44;;;;;;;13.30;5.93;;;;;;;-0.83;92.34;97149.97;5073988;28;20032;-63
2024/01/15 09:40:14;;;;;;;11.25;5.07;;;;;;;-0.52;91.89;97204.28;5059868;28;20569;-64
2024/01/15 09:42:40;;;;;;;11.02;5.55;;;;;;;-0.89;90.68;97166.31;5066932;28;20068;-64
2024/01/15 09:45:07;;;;;;;11.95;5.18;;;;;;;-0.61;91.56;97199.47;5102641;28;20041;-63
2024/01/15 09:47:33;;;;;;;10.68;5.43;;;;;;;-0.54;92.51;97206.91;5064235;28;20040;-61
2024/01/15 09:49:59;;;;;;;13.45;5.72;;;;;;;-0.54;92.75;97211.16;5088321;28;20050;-65
2024/01/15 09:52:25;;;;;;;14.77;7.70;;;;;;;-0.58;93.58;97212.16;5063146;28;20424;-64
2024/01/15 09:54:51;;;;;;;16.13;7.15;;;;;;;-0.53;95.23;97206.03;5069218;28;20861;-64
2024/01/15 09:57:17;;;;;;;15.20;6.57;;;;;;;-0.54;96.14;97212.00;5050219;28;20520;-65
2024/01/15 09:59:44;;;;;;;18.05;7.53;;;;;;;-0.62;96.20;97208.00;5100716;28;20040;-64
2024/01/15 10:02:30;;;;;;;13.52;6.35;;;;;;;-0.56;96.96;97216.31;5064523;28;20127;-64
2024/01/15 10:04:56;;;;;;;22.48;6.57;;;;;;;-0.68;98.25;97187.78;5069220;28;20040;-62
2024/01/15 10:07:22;;;;;;;13.23;6.07;;;;;;;-0.53;98.64;97208.59;5049384;28;20048;-65
2024/01/15 10:09:48;;;;;;;14.50;6.53;;;;;;;-0.59;98.78;97207.91;5079711;28;20086;-64
2024/01/15 10:12:14;;;;;;;15.95;7.00;;;;;;;-0.55;98.74;97209.50;5068594;28;20036;-64
2024/01/15 10:14:40;;;;;;;15.38;6.15;;;;;;;-0.64;99.63;97184.28;5087199;28;20132;-64
2024/01/15 10:17:13;;;;;;;11.60;5.82;;;;;;;-0.40;99.95;97205.63;5067370;28;20039;-65
2024/01/15 10:19:57;;;;;;;14.00;6.40;;;;;;;-0.38;98.87;97204.72;5049472;28;20044;-63
2024/01/15 10:22:23;;;;;;;15.00;5.90;;;;;;;-0.19;100.00;97202.44;5100844;28;20083;-65
2024/01/15 10:24:49;;;;;;;14.48;6.10;;;;;;;-0.15;98.92;97194.63;5050074;28;20083;-63
2024/01/15 10:27:16;;;;;;;14.15;5.80;;;;;;;-0.19;98.01;97203.25;5067864;28;20044;-64
2024/01/15 10:29:42;;;;;;;13.13;6.05;;;;;;;-0.24;96.75;97199.19;5067582;28;20091;-62
2024/01/15 10:32:08;;;;;;;14.88;6.32;;;;;;;-0.24;96.70;97202.56;5064900;28;20561;-64
2024/01/15 10:34:39;;;;;;;15.50;6.80;;;;;;;-0.12;98.07;97209.84;5063828;28;20040;-64
2024/01/15 10:37:07;;;;;;;14.18;6.65;;;;;;;0.02;99.19;97206.00;5100616;28;20515;-63
2024/01/15 10:39:33;;;;;;;14.82;6.65;;;;;;;-0.31;98.52;97152.59;5050250;28;20618;-64
2024/01/15 10:41:59;;;;;;;13.07;4.85;;;;;;;-0.02;98.46;97207.84;5061830;28;20155;-63
2024/01/15 10:44:25;;;;;;;15.13;6.50;;;;;;;-0.10;97.67;97200.41;5100624;28;20041;-63
2024/01/15 10:46:51;;;;;;;14.07;5.68;;;;;;;-0.30;97.43;97184.06;5049535;28;20043;-63
2024/01/15 10:49:19;;;;;;;14.30;6.63;;;;;;;-0.12;97.18;97202.19;5060267;28;20041;-63
2024/01/15 10:51:46;;;;;;;13.18;5.82;;;;;;;-0.42;98.65;97129.97;5062494;28;20466;-63
2024/01/15 10:54:12;;;;;;;16.60;7.40;;;;;;;-0.11;97.98;97203.03;5063201;28;20040;-64
2024/01/15 10:56:39;;;;;;;15.35;6.43;;;;;;;-0.16;96.94;97204.91;5045748;28;20037;-64
2024/01/15 10:59:05;;;;;;;16.70;7.72;;;;;;;-0.35;96.27;97174.00;5082252;28;20165;-63
2024/01/15 11:01:31;;;;;;;11.70;4.82;;;;;;;-0.11;97.73;97205.59;5062945;28;20056;-61
2024/01/15 11:03:57;;;;;;;10.55;5.82;;;;;;;-0.22;95.20;97199.97;5067016;28;20093;-62
2024/01/15 11:06:46;;;;;;;15.57;6.20;;;;;;;-0.42;94.96;97172.53;5063762;28;20036;-62
2024/01/15 11:12:35;;;;;;;10.60;5.00;;;;;;;-0.36;95.31;97197.00;5066187;28;20044;-64
2024/01/15 11:15:09;;;;;;;16.85;7.18;;;;;;;-0.35;93.88;97199.50;5065424;28;20105;-63
2024/01/15 11:18:01;;;;;;;17.30;6.82;;;;;;;-0.37;93.68;97197.91;5032748;28;20106;-60
2024/01/15 11:21:17;;;;;;;17.88;7.20;;;;;;;-0.35;94.20;97202.06;5077041;28;20041;-63
2024/01/15 11:24:06;;;;;;;13.35;6.38;;;;;;;-0.29;96.44;97198.50;5060650;28;20608;-63
2024/01/15 11:26:35;;;;;;;14.98;6.32;;;;;;;-0.24;97.14;97196.63;5060226;28;20083;-63
2024/01/15 11:29:05;;;;;;;14.13;6.35;;;;;;;-0.16;98.36;97208.25;5065283;28;20555;-61
2024/01/15 11:31:40;;;;;;;14.20;7.30;;;;;;;-0.27;97.21;97195.03;5047881;28;20569;-64
2024/01/15 11:34:11;;;;;;;17.65;6.95;;;;;;;-0.25;98.04;97200.91;5063497;28;20139;-64
2024/01/15 11:36:46;;;;;;;10.77;5.90;;;;;;;-0.22;98.06;97189.78;5079561;28;20123;-63
2024/01/15 11:42:13;;;;;;;16.45;6.32;;;;;;;-0.21;96.80;97192.25;5064620;28;20155;-64
2024/01/15 11:44:39;;;;;;;11.52;5.18;;;;;;;-0.24;97.05;97196.63;5046767;28;20909;-62
2024/01/15 11:47:06;;;;;;;11.50;5.47;;;;;;;-0.33;95.90;97205.41;5066491;28;20036;-64
2024/01/15 11:50:06;;;;;;;13.95;6.47;;;;;;;-0.29;95.20;97188.28;5014414;28;20048;-62
2024/01/15 11:52:36;;;;;;;14.10;6.38;;;;;;;-0.33;94.86;97202.03;5060287;28;20051;-62
2024/01/15 11:55:30;;;;;;;18.88;7.53;;;;;;;-0.44;92.57;97182.78;5066158;28;20055;-63
2024/01/15 11:58:16;;;;;;;18.05;7.25;;;;;;;-0.39;93.04;97192.84;5065791;28;20044;-64
2024/01/15 12:00:49;;;;;;;13.55;5.90;;;;;;;-0.39;93.99;97203.06;5060835;28;20063;-64
2024/01/15 12:03:15;;;;;;;9.88;5.70;;;;;;;-0.59;92.80;97155.19;5044479;28;20119;-62
2024/01/15 12:05:42;;;;;;;16.13;6.90;;;;;;;-0.67;91.24;97157.13;5064000;28;20500;-63
2024/01/15 12:08:10;;;;;;;17.85;6.93;;;;;;;-0.35;93.13;97198.69;5046265;28;20495;-63
2024/01/15 12:10:40;;;;;;;14.88;6.32;;;;;;;-0.40;93.33;97198.81;5064728;28;20044;-64
2024/01/15 12:13:12;;;;;;;12.07;5.55;;;;;;;-0.44;92.79;97195.53;5065398;28;20040;-63
2024/01/15 12:15:42;;;;;;;12.80;5.80;;;;;;;-0.65;92.44;97163.03;5077419;28;20040;-62
2024/01/15 12:18:11;;;;;;;19.42;7.95;;;;;;;-0.48;91.69;97191.41;5048299;28;20048;-64
2024/01/15 12:20:37;;;;;;;18.85;6.80;;;;;;;-0.44;92.27;97190.44;5056126;28;20548;-67
2024/01/15 12:23:04;;;;;;;16.60;7.00;;;;;;;-0.40;93.82;97190.31;5052064;28;20131;-66